Treadway, Tennessee
Current Conditions -  °F | °C
As of 12:55 AM on Sunday 23 Nov 2014 (Local Time) from KMOR Reporting Station
Clear Clear  
Wind Chill: 43°   Ceiling: Unl
Heat Index: 43°   Visibility: 10mi
Dew Point: 28°   Wind: 3mph
Humidity: 57%   Direction: 70°ENE
Pressure: 30.16"   Gusts: NA
Location:  36.3965°N, 83.3588°W
Report Text: KMOR 230555Z AUTO 07003KT 10SM CLR 06/M02 A3016 RMK
Loading
Personal Weather Stations






























Interactive Weather Map New forecast layout! Learn more

10-Day Weather Forecast

Advertisements
Track Severe Weather on mobile